Soesterberg, Nederland

11:26 AM CEST op 19 april 2015 (GMT +0200)
Van der Griendtlaan | | Change Station
CLOSE
Current Station
Persoonlijk weerstation
Location: Soesterberg, UTRECHT
Geometrische hoogte: 56 ft
Nabije weerstations

Hoogte 56 ft 52.12 °N, 5.28 °E | Updated 4 seconds ago

Scattered Clouds
Licht bewolkt
52.6 °F
Voelt als 52.6 °F
N
1.0
Wind Variabel Wind van west
Gusts 6.0 mijl/u

Vandaag
Hoog -- | Laag -- °F
--% Kans op neerslag
Gisteren
Hoog -- | Laag -- °F
Precip. -- inches
6:34 AM 8:43 PM
Nieuwe maan, 1% visible
Druk 30.18 inches
Zicht 6.2 mijlen
Wolken Gering 2000 ft
Licht bewolkt 4000 ft
Dauwpunt 36 °F
Vochtigheid 54%
Neerslag 0.00 inches
Dikte sneeuw Niet beschikbaar.
UV 4 van de 12
Pollen Niet beschikbaar.
Luchtkwaliteit Niet beschikbaar.
Flu Activity Niet beschikbaar.
METAR EHAM 190855Z VRB02KT 9999 FEW020 SCT040 09/05 Q1022 NOSIG

More Conditions Fewer Conditions

Druk 30.18 inches
Zicht 6.2 mijlen
Wolken Gering 2000 ft
Licht bewolkt 4000 ft
Dauwpunt 36 °F
Vochtigheid 54%
Neerslag 0.00 inches
Dikte sneeuw Niet beschikbaar.
UV 4 van de 12
Pollen Niet beschikbaar.
Luchtkwaliteit Niet beschikbaar.
Flu Activity Niet beschikbaar.
METAR EHAM 190855Z VRB02KT 9999 FEW020 SCT040 09/05 Q1022 NOSIG

More Conditions Fewer Conditions

10-Day Weather Forecast

Almanac

Astronomie

Apr. 19, 2015 Opkomst Ondergang
Werkelijke tijd
Burgerlijke schemering
Nautische schemering
Astronomische schemering
Maan
Golflengte van het zichtbare licht
Daglengte
Tomorrow will be .
, % of the Moon is Illuminated

Extremen vandaag

Country Highs Country Lows

Community

WunderPhotos

Upload Photos

1,814,753 foto’s ge-upload!

WunderBlogs® & News

Nearby

Luchtkwaliteit

  Luchtkwaliteit LK-index Verontreinigende stof
Not available.

Dikte sneeuw

Station Depth Geometrische hoogte

Aardbevingen

Stad Distance Mag. Time & Date
Minimum magnitude displayed is 2.5.

Watertemperatuur langs de kust

Plaats Temperatuur

Stations

Nabije weerstations

Locatie station Temp. Gevoelstemperatuur Dauwpunt Vochtigheid Wind Precip. Hoogte Geactualiseerd Type